sensor_id;sensor_type;location;lat;lon;timestamp;P1;durP1;ratioP1;P2;durP2;ratioP2
3561;SDS011;1795;52.074;4.754;2022-11-23T00:00:38;17.80;;;10.38;;
3561;SDS011;1795;52.074;4.754;2022-11-23T00:03:10;21.05;;;10.43;;
3561;SDS011;1795;52.074;4.754;2022-11-23T00:05:40;18.20;;;10.60;;
3561;SDS011;1795;52.074;4.754;2022-11-23T00:08:08;18.52;;;10.98;;
3561;SDS011;1795;52.074;4.754;2022-11-23T00:10:38;20.75;;;11.40;;
3561;SDS011;1795;52.074;4.754;2022-11-23T00:13:06;20.55;;;11.55;;
3561;SDS011;1795;52.074;4.754;2022-11-23T00:15:34;21.50;;;11.20;;
3561;SDS011;1795;52.074;4.754;2022-11-23T00:18:02;19.23;;;12.15;;
3561;SDS011;1795;52.074;4.754;2022-11-23T00:20:31;24.10;;;12.50;;
3561;SDS011;1795;52.074;4.754;2022-11-23T00:22:59;23.30;;;11.23;;
3561;SDS011;1795;52.074;4.754;2022-11-23T00:25:27;17.03;;;11.67;;
3561;SDS011;1795;52.074;4.754;2022-11-23T00:27:57;23.65;;;12.73;;
3561;SDS011;1795;52.074;4.754;2022-11-23T00:30:25;19.67;;;12.50;;
3561;SDS011;1795;52.074;4.754;2022-11-23T00:32:54;22.75;;;12.45;;
3561;SDS011;1795;52.074;4.754;2022-11-23T00:35:23;21.90;;;12.20;;
3561;SDS011;1795;52.074;4.754;2022-11-23T00:37:51;23.35;;;11.70;;
3561;SDS011;1795;52.074;4.754;2022-11-23T00:40:19;22.98;;;12.20;;
3561;SDS011;1795;52.074;4.754;2022-11-23T00:42:47;21.40;;;11.90;;
3561;SDS011;1795;52.074;4.754;2022-11-23T00:45:17;23.85;;;12.05;;
3561;SDS011;1795;52.074;4.754;2022-11-23T00:47:45;19.10;;;11.80;;
3561;SDS011;1795;52.074;4.754;2022-11-23T00:50:14;22.35;;;13.30;;
3561;SDS011;1795;52.074;4.754;2022-11-23T00:52:42;26.00;;;12.80;;
3561;SDS011;1795;52.074;4.754;2022-11-23T00:55:10;21.10;;;12.13;;
3561;SDS011;1795;52.074;4.754;2022-11-23T00:57:39;23.85;;;12.35;;
3561;SDS011;1795;52.074;4.754;2022-11-23T01:00:07;18.88;;;13.10;;
3561;SDS011;1795;52.074;4.754;2022-11-23T01:02:39;21.73;;;12.27;;
3561;SDS011;1795;52.074;4.754;2022-11-23T01:05:07;23.13;;;13.00;;
3561;SDS011;1795;52.074;4.754;2022-11-23T01:07:36;17.55;;;12.95;;
3561;SDS011;1795;52.074;4.754;2022-11-23T01:10:04;21.92;;;13.30;;
3561;SDS011;1795;52.074;4.754;2022-11-23T01:12:33;22.80;;;12.90;;
3561;SDS011;1795;52.074;4.754;2022-11-23T01:15:01;22.67;;;12.50;;
3561;SDS011;1795;52.074;4.754;2022-11-23T01:17:30;24.63;;;13.80;;
3561;SDS011;1795;52.074;4.754;2022-11-23T01:19:59;23.90;;;13.65;;
3561;SDS011;1795;52.074;4.754;2022-11-23T01:22:27;23.55;;;12.50;;
3561;SDS011;1795;52.074;4.754;2022-11-23T01:24:56;28.10;;;13.40;;
3561;SDS011;1795;52.074;4.754;2022-11-23T01:27:24;24.10;;;12.93;;
3561;SDS011;1795;52.074;4.754;2022-11-23T01:29:52;22.27;;;13.02;;
3561;SDS011;1795;52.074;4.754;2022-11-23T01:32:20;21.95;;;12.40;;
3561;SDS011;1795;52.074;4.754;2022-11-23T01:34:49;19.48;;;11.70;;
3561;SDS011;1795;52.074;4.754;2022-11-23T01:37:18;20.33;;;11.82;;
3561;SDS011;1795;52.074;4.754;2022-11-23T01:39:47;21.55;;;11.98;;
3561;SDS011;1795;52.074;4.754;2022-11-23T01:42:15;23.48;;;13.30;;
3561;SDS011;1795;52.074;4.754;2022-11-23T01:44:43;22.73;;;12.30;;
3561;SDS011;1795;52.074;4.754;2022-11-23T01:47:12;20.80;;;12.27;;
3561;SDS011;1795;52.074;4.754;2022-11-23T01:49:41;22.45;;;12.15;;
3561;SDS011;1795;52.074;4.754;2022-11-23T01:52:10;21.17;;;11.48;;
3561;SDS011;1795;52.074;4.754;2022-11-23T01:54:42;23.65;;;11.88;;
3561;SDS011;1795;52.074;4.754;2022-11-23T01:57:12;20.53;;;11.20;;
3561;SDS011;1795;52.074;4.754;2022-11-23T01:59:44;23.30;;;10.65;;
3561;SDS011;1795;52.074;4.754;2022-11-23T02:02:12;23.90;;;11.40;;
3561;SDS011;1795;52.074;4.754;2022-11-23T02:04:42;17.55;;;10.27;;
3561;SDS011;1795;52.074;4.754;2022-11-23T02:07:12;21.15;;;10.30;;
3561;SDS011;1795;52.074;4.754;2022-11-23T02:09:43;19.35;;;9.88;;
3561;SDS011;1795;52.074;4.754;2022-11-23T02:12:12;18.95;;;9.77;;
3561;SDS011;1795;52.074;4.754;2022-11-23T02:14:40;19.02;;;9.65;;
3561;SDS011;1795;52.074;4.754;2022-11-23T02:17:09;20.42;;;9.35;;
3561;SDS011;1795;52.074;4.754;2022-11-23T02:19:39;19.45;;;9.50;;
3561;SDS011;1795;52.074;4.754;2022-11-23T02:22:09;20.13;;;8.85;;
3561;SDS011;1795;52.074;4.754;2022-11-23T02:24:40;19.52;;;8.48;;
3561;SDS011;1795;52.074;4.754;2022-11-23T02:27:12;18.42;;;9.18;;
3561;SDS011;1795;52.074;4.754;2022-11-23T02:29:41;19.90;;;8.60;;
3561;SDS011;1795;52.074;4.754;2022-11-23T02:32:09;19.67;;;8.43;;
3561;SDS011;1795;52.074;4.754;2022-11-23T02:34:38;14.65;;;7.95;;
3561;SDS011;1795;52.074;4.754;2022-11-23T02:37:07;16.42;;;7.90;;
3561;SDS011;1795;52.074;4.754;2022-11-23T02:39:36;15.63;;;8.55;;
3561;SDS011;1795;52.074;4.754;2022-11-23T02:42:07;15.38;;;7.70;;
3561;SDS011;1795;52.074;4.754;2022-11-23T02:44:38;14.23;;;7.45;;
3561;SDS011;1795;52.074;4.754;2022-11-23T02:47:12;14.60;;;8.15;;
3561;SDS011;1795;52.074;4.754;2022-11-23T02:49:41;13.05;;;7.80;;
3561;SDS011;1795;52.074;4.754;2022-11-23T02:52:11;16.50;;;7.95;;
3561;SDS011;1795;52.074;4.754;2022-11-23T02:54:40;16.17;;;7.75;;
3561;SDS011;1795;52.074;4.754;2022-11-23T02:57:08;16.97;;;7.50;;
3561;SDS011;1795;52.074;4.754;2022-11-23T02:59:38;12.33;;;7.27;;
3561;SDS011;1795;52.074;4.754;2022-11-23T03:02:06;14.30;;;7.00;;
3561;SDS011;1795;52.074;4.754;2022-11-23T03:04:34;18.73;;;8.70;;
3561;SDS011;1795;52.074;4.754;2022-11-23T03:07:02;16.52;;;7.90;;
3561;SDS011;1795;52.074;4.754;2022-11-23T03:09:31;16.45;;;8.50;;
3561;SDS011;1795;52.074;4.754;2022-11-23T03:11:59;14.57;;;8.00;;
3561;SDS011;1795;52.074;4.754;2022-11-23T03:14:28;13.93;;;8.98;;
3561;SDS011;1795;52.074;4.754;2022-11-23T03:16:57;16.05;;;9.20;;
3561;SDS011;1795;52.074;4.754;2022-11-23T03:19:26;13.00;;;9.10;;
3561;SDS011;1795;52.074;4.754;2022-11-23T03:21:54;16.23;;;9.90;;
3561;SDS011;1795;52.074;4.754;2022-11-23T03:24:22;16.00;;;10.00;;
3561;SDS011;1795;52.074;4.754;2022-11-23T03:26:51;17.25;;;9.98;;
3561;SDS011;1795;52.074;4.754;2022-11-23T03:29:19;17.30;;;10.57;;
3561;SDS011;1795;52.074;4.754;2022-11-23T03:31:51;16.90;;;11.43;;
3561;SDS011;1795;52.074;4.754;2022-11-23T03:34:21;18.40;;;11.65;;
3561;SDS011;1795;52.074;4.754;2022-11-23T03:36:49;19.15;;;11.40;;
3561;SDS011;1795;52.074;4.754;2022-11-23T03:39:17;17.60;;;12.67;;
3561;SDS011;1795;52.074;4.754;2022-11-23T03:41:46;19.88;;;12.77;;
3561;SDS011;1795;52.074;4.754;2022-11-23T03:44:14;20.38;;;12.05;;
3561;SDS011;1795;52.074;4.754;2022-11-23T03:46:42;18.87;;;13.00;;
3561;SDS011;1795;52.074;4.754;2022-11-23T03:49:10;21.25;;;12.85;;
3561;SDS011;1795;52.074;4.754;2022-11-23T03:51:40;18.40;;;12.80;;
3561;SDS011;1795;52.074;4.754;2022-11-23T03:54:08;20.40;;;13.25;;
3561;SDS011;1795;52.074;4.754;2022-11-23T03:56:37;22.30;;;13.05;;
3561;SDS011;1795;52.074;4.754;2022-11-23T03:59:05;20.92;;;13.52;;
3561;SDS011;1795;52.074;4.754;2022-11-23T04:01:33;21.48;;;12.63;;
3561;SDS011;1795;52.074;4.754;2022-11-23T04:04:02;20.73;;;13.30;;
3561;SDS011;1795;52.074;4.754;2022-11-23T04:06:30;20.25;;;12.90;;
3561;SDS011;1795;52.074;4.754;2022-11-23T04:09:00;24.03;;;13.27;;
3561;SDS011;1795;52.074;4.754;2022-11-23T04:11:28;22.83;;;13.00;;
3561;SDS011;1795;52.074;4.754;2022-11-23T04:13:56;18.77;;;12.37;;
3561;SDS011;1795;52.074;4.754;2022-11-23T04:16:24;18.58;;;11.75;;
3561;SDS011;1795;52.074;4.754;2022-11-23T04:18:53;18.92;;;12.10;;
3561;SDS011;1795;52.074;4.754;2022-11-23T04:21:21;20.40;;;13.30;;
3561;SDS011;1795;52.074;4.754;2022-11-23T04:23:49;17.53;;;11.80;;
3561;SDS011;1795;52.074;4.754;2022-11-23T04:26:19;16.73;;;12.35;;
3561;SDS011;1795;52.074;4.754;2022-11-23T04:28:47;17.60;;;12.90;;
3561;SDS011;1795;52.074;4.754;2022-11-23T04:31:15;19.00;;;12.40;;
3561;SDS011;1795;52.074;4.754;2022-11-23T04:33:44;19.98;;;12.82;;
3561;SDS011;1795;52.074;4.754;2022-11-23T04:36:12;16.20;;;12.60;;
3561;SDS011;1795;52.074;4.754;2022-11-23T04:38:40;20.63;;;13.50;;
3561;SDS011;1795;52.074;4.754;2022-11-23T04:41:08;18.00;;;12.27;;
3561;SDS011;1795;52.074;4.754;2022-11-23T04:43:38;22.98;;;12.98;;
3561;SDS011;1795;52.074;4.754;2022-11-23T04:46:08;18.15;;;12.70;;
3561;SDS011;1795;52.074;4.754;2022-11-23T04:48:36;20.50;;;12.95;;
3561;SDS011;1795;52.074;4.754;2022-11-23T04:51:04;19.93;;;13.30;;
3561;SDS011;1795;52.074;4.754;2022-11-23T04:53:33;20.08;;;12.00;;
3561;SDS011;1795;52.074;4.754;2022-11-23T04:56:01;18.27;;;13.00;;
3561;SDS011;1795;52.074;4.754;2022-11-23T04:58:30;18.50;;;12.75;;
3561;SDS011;1795;52.074;4.754;2022-11-23T05:01:01;18.17;;;12.70;;
3561;SDS011;1795;52.074;4.754;2022-11-23T05:03:30;19.65;;;11.82;;
3561;SDS011;1795;52.074;4.754;2022-11-23T05:06:00;15.95;;;11.43;;
3561;SDS011;1795;52.074;4.754;2022-11-23T05:08:29;18.03;;;11.10;;
3561;SDS011;1795;52.074;4.754;2022-11-23T05:10:57;16.92;;;10.68;;
3561;SDS011;1795;52.074;4.754;2022-11-23T05:13:25;19.55;;;11.25;;
3561;SDS011;1795;52.074;4.754;2022-11-23T05:15:54;19.15;;;10.57;;
3561;SDS011;1795;52.074;4.754;2022-11-23T05:18:23;16.80;;;10.63;;
3561;SDS011;1795;52.074;4.754;2022-11-23T05:20:51;14.80;;;10.60;;
3561;SDS011;1795;52.074;4.754;2022-11-23T05:23:20;16.63;;;9.43;;
3561;SDS011;1795;52.074;4.754;2022-11-23T05:25:48;14.25;;;9.88;;
3561;SDS011;1795;52.074;4.754;2022-11-23T05:28:17;18.25;;;9.50;;
3561;SDS011;1795;52.074;4.754;2022-11-23T05:31:05;16.88;;;8.73;;
3561;SDS011;1795;52.074;4.754;2022-11-23T05:33:35;15.32;;;9.70;;
3561;SDS011;1795;52.074;4.754;2022-11-23T05:36:04;11.27;;;8.90;;
3561;SDS011;1795;52.074;4.754;2022-11-23T05:38:32;18.60;;;9.88;;
3561;SDS011;1795;52.074;4.754;2022-11-23T05:41:00;14.70;;;9.43;;
3561;SDS011;1795;52.074;4.754;2022-11-23T05:43:29;14.50;;;9.30;;
3561;SDS011;1795;52.074;4.754;2022-11-23T05:45:57;16.42;;;10.02;;
3561;SDS011;1795;52.074;4.754;2022-11-23T05:48:25;15.63;;;10.68;;
3561;SDS011;1795;52.074;4.754;2022-11-23T05:50:55;17.08;;;10.70;;
3561;SDS011;1795;52.074;4.754;2022-11-23T05:53:30;17.55;;;11.02;;
3561;SDS011;1795;52.074;4.754;2022-11-23T05:55:59;13.98;;;9.90;;
3561;SDS011;1795;52.074;4.754;2022-11-23T05:58:27;16.30;;;10.23;;
3561;SDS011;1795;52.074;4.754;2022-11-23T06:00:56;12.98;;;8.48;;
3561;SDS011;1795;52.074;4.754;2022-11-23T06:03:24;17.45;;;8.00;;
3561;SDS011;1795;52.074;4.754;2022-11-23T06:05:54;15.48;;;7.45;;
3561;SDS011;1795;52.074;4.754;2022-11-23T06:08:23;12.30;;;6.80;;
3561;SDS011;1795;52.074;4.754;2022-11-23T06:10:51;11.57;;;6.78;;
3561;SDS011;1795;52.074;4.754;2022-11-23T06:13:19;10.85;;;5.28;;
3561;SDS011;1795;52.074;4.754;2022-11-23T06:15:47;11.70;;;5.57;;
3561;SDS011;1795;52.074;4.754;2022-11-23T06:18:16;10.30;;;5.00;;
3561;SDS011;1795;52.074;4.754;2022-11-23T06:20:44;9.18;;;4.10;;
3561;SDS011;1795;52.074;4.754;2022-11-23T06:23:14;11.27;;;4.63;;
3561;SDS011;1795;52.074;4.754;2022-11-23T06:25:42;7.80;;;4.03;;
3561;SDS011;1795;52.074;4.754;2022-11-23T06:28:10;10.35;;;4.35;;
3561;SDS011;1795;52.074;4.754;2022-11-23T06:30:38;7.50;;;3.80;;
3561;SDS011;1795;52.074;4.754;2022-11-23T06:33:07;7.53;;;3.10;;
3561;SDS011;1795;52.074;4.754;2022-11-23T06:35:35;9.70;;;3.35;;
3561;SDS011;1795;52.074;4.754;2022-11-23T06:38:03;9.80;;;3.50;;
3561;SDS011;1795;52.074;4.754;2022-11-23T06:40:33;8.43;;;3.50;;
3561;SDS011;1795;52.074;4.754;2022-11-23T06:43:01;10.10;;;3.28;;
3561;SDS011;1795;52.074;4.754;2022-11-23T06:45:29;11.57;;;3.60;;
3561;SDS011;1795;52.074;4.754;2022-11-23T06:47:58;10.80;;;3.70;;
3561;SDS011;1795;52.074;4.754;2022-11-23T06:50:26;9.38;;;4.38;;
3561;SDS011;1795;52.074;4.754;2022-11-23T06:52:54;10.43;;;4.35;;
3561;SDS011;1795;52.074;4.754;2022-11-23T06:55:23;13.40;;;4.30;;
3561;SDS011;1795;52.074;4.754;2022-11-23T06:57:54;12.05;;;4.43;;
3561;SDS011;1795;52.074;4.754;2022-11-23T07:00:23;13.85;;;4.03;;
3561;SDS011;1795;52.074;4.754;2022-11-23T07:02:52;9.98;;;3.83;;
3561;SDS011;1795;52.074;4.754;2022-11-23T07:05:21;16.33;;;4.00;;
3561;SDS011;1795;52.074;4.754;2022-11-23T07:07:49;9.80;;;3.95;;
3561;SDS011;1795;52.074;4.754;2022-11-23T07:10:18;14.17;;;3.70;;
3561;SDS011;1795;52.074;4.754;2022-11-23T07:12:46;12.25;;;4.85;;
3561;SDS011;1795;52.074;4.754;2022-11-23T07:15:16;11.52;;;4.10;;
3561;SDS011;1795;52.074;4.754;2022-11-23T07:17:44;15.98;;;4.90;;
3561;SDS011;1795;52.074;4.754;2022-11-23T07:20:12;12.60;;;4.25;;
3561;SDS011;1795;52.074;4.754;2022-11-23T07:22:41;11.98;;;3.70;;
3561;SDS011;1795;52.074;4.754;2022-11-23T07:25:09;8.75;;;3.63;;
3561;SDS011;1795;52.074;4.754;2022-11-23T07:27:41;10.77;;;3.90;;
3561;SDS011;1795;52.074;4.754;2022-11-23T07:30:10;12.27;;;3.63;;
3561;SDS011;1795;52.074;4.754;2022-11-23T07:32:40;9.10;;;3.10;;
3561;SDS011;1795;52.074;4.754;2022-11-23T07:35:08;11.77;;;3.80;;
3561;SDS011;1795;52.074;4.754;2022-11-23T07:37:37;12.60;;;3.22;;
3561;SDS011;1795;52.074;4.754;2022-11-23T07:40:06;12.55;;;2.80;;
3561;SDS011;1795;52.074;4.754;2022-11-23T07:42:35;11.38;;;3.17;;
3561;SDS011;1795;52.074;4.754;2022-11-23T07:45:10;9.30;;;3.00;;
3561;SDS011;1795;52.074;4.754;2022-11-23T07:47:40;10.65;;;3.30;;
3561;SDS011;1795;52.074;4.754;2022-11-23T07:50:09;10.15;;;2.78;;
3561;SDS011;1795;52.074;4.754;2022-11-23T07:52:37;11.02;;;3.20;;
3561;SDS011;1795;52.074;4.754;2022-11-23T07:55:06;12.65;;;3.22;;
3561;SDS011;1795;52.074;4.754;2022-11-23T07:57:35;15.03;;;3.27;;
3561;SDS011;1795;52.074;4.754;2022-11-23T08:00:04;13.48;;;2.63;;
3561;SDS011;1795;52.074;4.754;2022-11-23T08:02:32;12.43;;;3.20;;
3561;SDS011;1795;52.074;4.754;2022-11-23T08:05:02;13.73;;;3.10;;
3561;SDS011;1795;52.074;4.754;2022-11-23T08:07:36;13.30;;;3.25;;
3561;SDS011;1795;52.074;4.754;2022-11-23T08:10:05;15.23;;;3.60;;
3561;SDS011;1795;52.074;4.754;2022-11-23T08:12:33;9.07;;;3.00;;
3561;SDS011;1795;52.074;4.754;2022-11-23T08:15:02;8.30;;;3.10;;
3561;SDS011;1795;52.074;4.754;2022-11-23T08:17:30;12.32;;;3.58;;
3561;SDS011;1795;52.074;4.754;2022-11-23T08:19:58;9.60;;;3.00;;
3561;SDS011;1795;52.074;4.754;2022-11-23T08:22:28;12.98;;;3.10;;
3561;SDS011;1795;52.074;4.754;2022-11-23T08:24:56;11.85;;;3.20;;
3561;SDS011;1795;52.074;4.754;2022-11-23T08:27:24;14.25;;;3.10;;
3561;SDS011;1795;52.074;4.754;2022-11-23T08:29:53;10.45;;;2.85;;
3561;SDS011;1795;52.074;4.754;2022-11-23T08:32:21;16.33;;;3.80;;
3561;SDS011;1795;52.074;4.754;2022-11-23T08:34:49;12.25;;;3.50;;
3561;SDS011;1795;52.074;4.754;2022-11-23T08:37:17;14.02;;;3.47;;
3561;SDS011;1795;52.074;4.754;2022-11-23T08:39:47;14.43;;;3.70;;
3561;SDS011;1795;52.074;4.754;2022-11-23T08:42:15;11.27;;;3.20;;
3561;SDS011;1795;52.074;4.754;2022-11-23T08:44:44;9.68;;;2.90;;
3561;SDS011;1795;52.074;4.754;2022-11-23T08:47:12;9.10;;;3.40;;
3561;SDS011;1795;52.074;4.754;2022-11-23T08:49:40;12.25;;;3.00;;
3561;SDS011;1795;52.074;4.754;2022-11-23T08:52:08;16.13;;;3.42;;
3561;SDS011;1795;52.074;4.754;2022-11-23T08:54:37;6.70;;;2.58;;
3561;SDS011;1795;52.074;4.754;2022-11-23T08:57:06;12.73;;;3.17;;
3561;SDS011;1795;52.074;4.754;2022-11-23T08:59:35;11.02;;;3.08;;
3561;SDS011;1795;52.074;4.754;2022-11-23T09:02:03;14.47;;;2.90;;
3561;SDS011;1795;52.074;4.754;2022-11-23T09:04:31;14.30;;;3.00;;
3561;SDS011;1795;52.074;4.754;2022-11-23T09:07:01;11.63;;;3.17;;
3561;SDS011;1795;52.074;4.754;2022-11-23T09:09:29;14.77;;;3.10;;
3561;SDS011;1795;52.074;4.754;2022-11-23T09:11:58;15.68;;;3.33;;
3561;SDS011;1795;52.074;4.754;2022-11-23T09:14:27;12.37;;;2.80;;
3561;SDS011;1795;52.074;4.754;2022-11-23T09:16:56;13.55;;;3.50;;
3561;SDS011;1795;52.074;4.754;2022-11-23T09:19:24;12.25;;;3.00;;
3561;SDS011;1795;52.074;4.754;2022-11-23T09:21:53;12.80;;;3.35;;
3561;SDS011;1795;52.074;4.754;2022-11-23T09:24:21;16.35;;;3.20;;
3561;SDS011;1795;52.074;4.754;2022-11-23T09:26:51;11.82;;;3.35;;
3561;SDS011;1795;52.074;4.754;2022-11-23T09:29:19;12.32;;;2.85;;
3561;SDS011;1795;52.074;4.754;2022-11-23T09:31:49;16.77;;;2.65;;
3561;SDS011;1795;52.074;4.754;2022-11-23T09:34:17;15.05;;;3.08;;
3561;SDS011;1795;52.074;4.754;2022-11-23T09:36:45;17.88;;;3.03;;
3561;SDS011;1795;52.074;4.754;2022-11-23T09:39:14;11.80;;;3.15;;
3561;SDS011;1795;52.074;4.754;2022-11-23T09:41:47;12.07;;;3.20;;
3561;SDS011;1795;52.074;4.754;2022-11-23T09:44:20;12.00;;;3.40;;
3561;SDS011;1795;52.074;4.754;2022-11-23T09:46:56;13.55;;;2.90;;
3561;SDS011;1795;52.074;4.754;2022-11-23T09:49:30;15.63;;;3.60;;
3561;SDS011;1795;52.074;4.754;2022-11-23T09:52:00;12.18;;;3.38;;
3561;SDS011;1795;52.074;4.754;2022-11-23T09:54:29;11.87;;;2.90;;
3561;SDS011;1795;52.074;4.754;2022-11-23T09:56:59;16.48;;;2.90;;
3561;SDS011;1795;52.074;4.754;2022-11-23T09:59:33;9.73;;;2.70;;
3561;SDS011;1795;52.074;4.754;2022-11-23T10:02:05;15.85;;;3.35;;
3561;SDS011;1795;52.074;4.754;2022-11-23T10:04:34;18.15;;;3.25;;
3561;SDS011;1795;52.074;4.754;2022-11-23T10:07:05;15.98;;;3.53;;
3561;SDS011;1795;52.074;4.754;2022-11-23T10:09:39;14.50;;;3.20;;
3561;SDS011;1795;52.074;4.754;2022-11-23T10:12:16;14.65;;;3.90;;
3561;SDS011;1795;52.074;4.754;2022-11-23T10:15:02;11.00;;;3.08;;
3561;SDS011;1795;52.074;4.754;2022-11-23T10:17:39;11.45;;;3.25;;
3561;SDS011;1795;52.074;4.754;2022-11-23T10:20:19;11.20;;;3.30;;
3561;SDS011;1795;52.074;4.754;2022-11-23T10:22:50;13.17;;;3.37;;
3561;SDS011;1795;52.074;4.754;2022-11-23T10:25:24;10.60;;;2.65;;
3561;SDS011;1795;52.074;4.754;2022-11-23T10:27:53;11.97;;;3.20;;
3561;SDS011;1795;52.074;4.754;2022-11-23T10:30:22;14.50;;;3.47;;
3561;SDS011;1795;52.074;4.754;2022-11-23T10:32:54;10.70;;;3.42;;
3561;SDS011;1795;52.074;4.754;2022-11-23T10:35:26;9.75;;;3.00;;
3561;SDS011;1795;52.074;4.754;2022-11-23T10:38:08;13.45;;;3.15;;
3561;SDS011;1795;52.074;4.754;2022-11-23T10:40:44;11.18;;;3.05;;
3561;SDS011;1795;52.074;4.754;2022-11-23T10:43:16;14.90;;;3.70;;
3561;SDS011;1795;52.074;4.754;2022-11-23T10:45:46;11.25;;;3.70;;
3561;SDS011;1795;52.074;4.754;2022-11-23T10:48:30;14.25;;;3.60;;
3561;SDS011;1795;52.074;4.754;2022-11-23T10:51:13;11.40;;;2.90;;
3561;SDS011;1795;52.074;4.754;2022-11-23T10:53:42;11.88;;;3.80;;
3561;SDS011;1795;52.074;4.754;2022-11-23T10:56:11;10.37;;;3.20;;
3561;SDS011;1795;52.074;4.754;2022-11-23T10:58:41;12.80;;;3.47;;
3561;SDS011;1795;52.074;4.754;2022-11-23T11:01:11;11.95;;;3.20;;
3561;SDS011;1795;52.074;4.754;2022-11-23T11:03:42;10.73;;;3.78;;
3561;SDS011;1795;52.074;4.754;2022-11-23T11:06:10;14.43;;;3.25;;
3561;SDS011;1795;52.074;4.754;2022-11-23T11:08:47;9.63;;;3.00;;
3561;SDS011;1795;52.074;4.754;2022-11-23T11:11:25;9.50;;;2.90;;
3561;SDS011;1795;52.074;4.754;2022-11-23T11:14:00;9.90;;;3.13;;
3561;SDS011;1795;52.074;4.754;2022-11-23T11:16:29;10.57;;;3.00;;
3561;SDS011;1795;52.074;4.754;2022-11-23T11:18:59;11.35;;;2.88;;
3561;SDS011;1795;52.074;4.754;2022-11-23T11:21:47;7.63;;;3.30;;
3561;SDS011;1795;52.074;4.754;2022-11-23T11:24:16;9.70;;;2.75;;
3561;SDS011;1795;52.074;4.754;2022-11-23T11:26:46;7.60;;;2.40;;
3561;SDS011;1795;52.074;4.754;2022-11-23T11:29:22;8.48;;;2.95;;
3561;SDS011;1795;52.074;4.754;2022-11-23T11:31:52;9.68;;;2.60;;
3561;SDS011;1795;52.074;4.754;2022-11-23T11:34:25;7.03;;;2.58;;
3561;SDS011;1795;52.074;4.754;2022-11-23T11:36:59;10.57;;;2.47;;
3561;SDS011;1795;52.074;4.754;2022-11-23T11:39:31;9.57;;;2.75;;
3561;SDS011;1795;52.074;4.754;2022-11-23T11:42:01;7.43;;;2.67;;
3561;SDS011;1795;52.074;4.754;2022-11-23T11:44:32;12.50;;;3.10;;
3561;SDS011;1795;52.074;4.754;2022-11-23T11:47:18;10.27;;;3.30;;
3561;SDS011;1795;52.074;4.754;2022-11-23T11:49:50;11.88;;;3.55;;
3561;SDS011;1795;52.074;4.754;2022-11-23T11:52:20;11.57;;;3.28;;
3561;SDS011;1795;52.074;4.754;2022-11-23T11:54:49;8.30;;;2.60;;
3561;SDS011;1795;52.074;4.754;2022-11-23T11:57:19;9.13;;;3.53;;
3561;SDS011;1795;52.074;4.754;2022-11-23T11:59:48;8.90;;;2.72;;
3561;SDS011;1795;52.074;4.754;2022-11-23T12:02:19;8.20;;;2.80;;
3561;SDS011;1795;52.074;4.754;2022-11-23T12:04:53;10.88;;;3.00;;
3561;SDS011;1795;52.074;4.754;2022-11-23T12:07:23;9.23;;;2.78;;
3561;SDS011;1795;52.074;4.754;2022-11-23T12:09:56;8.03;;;2.70;;
3561;SDS011;1795;52.074;4.754;2022-11-23T12:12:27;11.32;;;3.10;;
3561;SDS011;1795;52.074;4.754;2022-11-23T12:14:56;8.52;;;2.90;;
3561;SDS011;1795;52.074;4.754;2022-11-23T12:17:41;8.55;;;3.35;;
3561;SDS011;1795;52.074;4.754;2022-11-23T12:20:18;10.05;;;2.78;;
3561;SDS011;1795;52.074;4.754;2022-11-23T12:22:52;6.50;;;2.50;;
3561;SDS011;1795;52.074;4.754;2022-11-23T12:25:23;7.32;;;2.65;;
3561;SDS011;1795;52.074;4.754;2022-11-23T12:28:01;9.05;;;2.53;;
3561;SDS011;1795;52.074;4.754;2022-11-23T12:30:35;10.50;;;2.70;;
3561;SDS011;1795;52.074;4.754;2022-11-23T12:33:08;11.07;;;3.00;;
3561;SDS011;1795;52.074;4.754;2022-11-23T12:35:44;9.53;;;3.00;;
3561;SDS011;1795;52.074;4.754;2022-11-23T12:38:18;10.70;;;2.85;;
3561;SDS011;1795;52.074;4.754;2022-11-23T12:40:58;8.20;;;2.40;;
3561;SDS011;1795;52.074;4.754;2022-11-23T12:43:30;10.73;;;2.47;;
3561;SDS011;1795;52.074;4.754;2022-11-23T12:46:07;6.13;;;2.40;;
3561;SDS011;1795;52.074;4.754;2022-11-23T12:48:42;8.93;;;2.45;;
3561;SDS011;1795;52.074;4.754;2022-11-23T12:51:20;9.45;;;2.35;;
3561;SDS011;1795;52.074;4.754;2022-11-23T12:53:53;5.82;;;2.25;;
3561;SDS011;1795;52.074;4.754;2022-11-23T12:56:43;4.82;;;2.00;;
3561;SDS011;1795;52.074;4.754;2022-11-23T12:59:13;4.90;;;2.10;;
3561;SDS011;1795;52.074;4.754;2022-11-23T13:01:42;12.50;;;2.20;;
3561;SDS011;1795;52.074;4.754;2022-11-23T13:04:27;4.28;;;1.70;;
3561;SDS011;1795;52.074;4.754;2022-11-23T13:07:06;7.47;;;2.10;;
3561;SDS011;1795;52.074;4.754;2022-11-23T13:12:47;7.30;;;1.88;;
3561;SDS011;1795;52.074;4.754;2022-11-23T13:15:22;7.38;;;1.90;;
3561;SDS011;1795;52.074;4.754;2022-11-23T13:17:57;6.90;;;1.85;;
3561;SDS011;1795;52.074;4.754;2022-11-23T13:20:28;8.50;;;2.28;;
3561;SDS011;1795;52.074;4.754;2022-11-23T13:23:05;9.15;;;2.28;;
3561;SDS011;1795;52.074;4.754;2022-11-23T13:25:34;7.90;;;1.88;;
3561;SDS011;1795;52.074;4.754;2022-11-23T13:28:02;8.05;;;2.15;;
3561;SDS011;1795;52.074;4.754;2022-11-23T13:30:32;4.68;;;1.67;;
3561;SDS011;1795;52.074;4.754;2022-11-23T13:33:25;8.32;;;1.70;;
3561;SDS011;1795;52.074;4.754;2022-11-23T13:35:59;4.15;;;1.80;;
3561;SDS011;1795;52.074;4.754;2022-11-23T13:38:38;6.20;;;2.10;;
3561;SDS011;1795;52.074;4.754;2022-11-23T13:44:03;5.90;;;2.00;;
3561;SDS011;1795;52.074;4.754;2022-11-23T13:46:37;4.82;;;1.80;;
3561;SDS011;1795;52.074;4.754;2022-11-23T13:49:22;6.82;;;1.85;;
3561;SDS011;1795;52.074;4.754;2022-11-23T13:52:03;6.95;;;2.00;;
3561;SDS011;1795;52.074;4.754;2022-11-23T13:54:33;6.00;;;1.70;;
3561;SDS011;1795;52.074;4.754;2022-11-23T13:57:01;6.78;;;1.90;;
3561;SDS011;1795;52.074;4.754;2022-11-23T13:59:32;5.00;;;1.70;;
3561;SDS011;1795;52.074;4.754;2022-11-23T14:02:02;5.60;;;1.90;;
3561;SDS011;1795;52.074;4.754;2022-11-23T14:04:50;5.80;;;1.80;;
3561;SDS011;1795;52.074;4.754;2022-11-23T14:07:19;6.35;;;1.83;;
3561;SDS011;1795;52.074;4.754;2022-11-23T14:09:53;5.10;;;1.80;;
3561;SDS011;1795;52.074;4.754;2022-11-23T14:12:24;8.40;;;1.85;;
3561;SDS011;1795;52.074;4.754;2022-11-23T14:14:57;5.88;;;1.80;;
3561;SDS011;1795;52.074;4.754;2022-11-23T14:17:39;6.95;;;1.83;;
3561;SDS011;1795;52.074;4.754;2022-11-23T14:20:16;7.88;;;1.90;;
3561;SDS011;1795;52.074;4.754;2022-11-23T14:22:51;5.57;;;1.80;;
3561;SDS011;1795;52.074;4.754;2022-11-23T14:25:27;5.25;;;1.48;;
3561;SDS011;1795;52.074;4.754;2022-11-23T14:28:00;7.20;;;1.90;;
3561;SDS011;1795;52.074;4.754;2022-11-23T14:30:39;5.25;;;1.77;;
3561;SDS011;1795;52.074;4.754;2022-11-23T14:33:22;3.80;;;1.60;;
3561;SDS011;1795;52.074;4.754;2022-11-23T14:35:55;5.45;;;1.85;;
3561;SDS011;1795;52.074;4.754;2022-11-23T14:38:50;4.60;;;1.90;;
3561;SDS011;1795;52.074;4.754;2022-11-23T14:41:24;5.68;;;2.00;;
3561;SDS011;1795;52.074;4.754;2022-11-23T14:43:53;6.43;;;1.90;;
3561;SDS011;1795;52.074;4.754;2022-11-23T14:46:22;3.45;;;1.80;;
3561;SDS011;1795;52.074;4.754;2022-11-23T14:48:51;8.50;;;1.65;;
3561;SDS011;1795;52.074;4.754;2022-11-23T14:51:21;6.05;;;2.00;;
3561;SDS011;1795;52.074;4.754;2022-11-23T14:53:52;6.00;;;1.90;;
3561;SDS011;1795;52.074;4.754;2022-11-23T14:56:22;5.15;;;1.60;;
3561;SDS011;1795;52.074;4.754;2022-11-23T14:58:58;4.65;;;1.80;;
3561;SDS011;1795;52.074;4.754;2022-11-23T15:01:27;6.97;;;1.90;;
3561;SDS011;1795;52.074;4.754;2022-11-23T15:03:56;2.85;;;1.80;;
3561;SDS011;1795;52.074;4.754;2022-11-23T15:06:26;3.95;;;1.70;;
3561;SDS011;1795;52.074;4.754;2022-11-23T15:08:56;5.47;;;1.50;;
3561;SDS011;1795;52.074;4.754;2022-11-23T15:11:29;5.27;;;1.40;;
3561;SDS011;1795;52.074;4.754;2022-11-23T15:14:00;3.65;;;1.70;;
3561;SDS011;1795;52.074;4.754;2022-11-23T15:16:28;5.25;;;1.70;;
3561;SDS011;1795;52.074;4.754;2022-11-23T15:19:17;4.70;;;1.80;;
3561;SDS011;1795;52.074;4.754;2022-11-23T15:21:45;7.05;;;1.80;;
3561;SDS011;1795;52.074;4.754;2022-11-23T15:24:21;3.85;;;1.77;;
3561;SDS011;1795;52.074;4.754;2022-11-23T15:26:50;6.47;;;1.80;;